Time;durP1;ratioP1;P1;durP2;ratioP2;P2;SDS_P1;SDS_P2;PMS_P1;PMS_P2;Temp;Humidity;BMP_temperature;BMP_pressure;BME280_temperature;BME280_humidity;BME280_pressure;Samples;Min_cycle;Max_cycle;Signal;HPM_P1;HPM_P2
2023/03/17 06:12:19;;;;;;;;;;;;;;;8.89;56.50;96608.84;4179054;28;10448;-63
2023/03/17 06:14:22;;;;;;;;;;;;;;;9.20;55.75;96598.81;4179148;28;5825;-63
2023/03/17 06:16:29;;;;;;;;;;;;;;;9.44;55.73;96604.69;4179640;28;5743;-63
2023/03/17 06:18:32;;;;;;;;;;;;;;;9.60;55.28;96607.03;4172040;28;5758;-63
2023/03/17 06:20:36;;;;;;;;;;;;;;;9.73;55.17;96611.59;4178969;28;6035;-63
2023/03/17 06:22:39;;;;;;;;;;;;;;;9.83;55.17;96614.72;4173091;28;5747;-63
2023/03/17 06:25:02;;;;;;;;;;;;;;;9.95;54.92;96620.28;4181112;28;5746;-64
2023/03/17 06:27:05;;;;;;;;;;;;;;;10.03;54.58;96622.78;4181124;28;5838;-64
2023/03/17 06:29:11;;;;;;;;;;;;;;;10.11;54.55;96620.00;4180741;28;5750;-64
2023/03/17 06:31:13;;;;;;;;;;;;;;;10.20;54.30;96630.22;4175185;28;5899;-64
2023/03/17 06:33:17;;;;;;;;;;;;;;;10.25;54.58;96632.28;4163000;28;5776;-64
2023/03/17 06:35:21;;;;;;;;;;;;;;;10.28;54.34;96639.00;4178341;28;5727;-64
2023/03/17 06:37:25;;;;;;;;;;;;;;;10.33;54.30;96633.97;4173596;28;5756;-65
2023/03/17 06:39:28;;;;;;;;;;;;;;;10.39;54.17;96641.09;4175858;28;5748;-65
2023/03/17 06:41:31;;;;;;;;;;;;;;;10.40;54.30;96640.09;4172836;28;5831;-62
2023/03/17 06:43:34;;;;;;;;;;;;;;;10.44;54.17;96636.06;4176731;28;5754;-65
2023/03/17 06:45:38;;;;;;;;;;;;;;;10.47;53.85;96638.31;4180599;28;5747;-65
2023/03/17 06:47:41;;;;;;;;;;;;;;;10.50;54.30;96632.63;4180777;28;6513;-63
2023/03/17 06:49:44;;;;;;;;;;;;;;;10.55;54.06;96635.50;4181360;28;5734;-64
2023/03/17 06:51:47;;;;;;;;;;;;;;;10.59;53.98;96628.00;4181042;28;5838;-63
2023/03/17 06:53:50;;;;;;;;;;;;;;;10.60;53.80;96629.63;4180886;28;5825;-64
2023/03/17 06:55:53;;;;;;;;;;;;;;;10.60;53.78;96634.91;4181766;28;6503;-64
2023/03/17 06:57:57;;;;;;;;;;;;;;;10.63;53.87;96634.50;4181175;28;6460;-64
2023/03/17 07:00:00;;;;;;;;;;;;;;;10.68;54.02;96637.38;4171933;28;5769;-64
2023/03/17 07:02:05;;;;;;;;;;;;;;;10.73;53.68;96640.25;4180234;28;5798;-65
2023/03/17 07:04:08;;;;;;;;;;;;;;;10.74;53.67;96640.03;4181529;28;5726;-64
2023/03/17 07:06:11;;;;;;;;;;;;;;;10.81;53.45;96639.25;4181139;28;5848;-64
2023/03/17 07:08:14;;;;;;;;;;;;;;;10.82;53.73;96636.41;4180840;28;5795;-65
2023/03/17 07:10:17;;;;;;;;;;;;;;;10.86;53.58;96642.13;4179859;28;5894;-64
2023/03/17 07:12:20;;;;;;;;;;;;;;;10.88;53.39;96638.28;4171874;28;5747;-65
2023/03/17 07:14:24;;;;;;;;;;;;;;;10.89;53.46;96634.63;4162764;28;5747;-65
2023/03/17 07:16:27;;;;;;;;;;;;;;;10.90;53.54;96638.91;4166975;28;6682;-65
2023/03/17 07:18:32;;;;;;;;;;;;;;;10.93;53.38;96646.44;4168748;28;5751;-65
2023/03/17 07:20:35;;;;;;;;;;;;;;;10.97;53.25;96652.94;4169180;28;5734;-65
2023/03/17 07:22:38;;;;;;;;;;;;;;;11.02;53.14;96655.81;4170079;28;6598;-65
2023/03/17 07:24:42;;;;;;;;;;;;;;;11.02;53.56;96650.53;4168093;28;6569;-64
2023/03/17 07:26:45;;;;;;;;;;;;;;;11.05;53.42;96647.47;4165470;28;5939;-65
2023/03/17 07:28:47;;;;;;;;;;;;;;;11.10;53.13;96641.59;4169778;28;5746;-65
2023/03/17 07:30:51;;;;;;;;;;;;;;;11.18;53.09;96645.88;4169538;28;5860;-65
2023/03/17 07:32:54;;;;;;;;;;;;;;;11.21;53.29;96651.59;4169127;28;5857;-65
2023/03/17 07:34:58;;;;;;;;;;;;;;;11.27;52.93;96650.78;4169615;28;6429;-65
2023/03/17 07:37:01;;;;;;;;;;;;;;;11.30;52.78;96642.44;4160223;28;5655;-65
2023/03/17 07:39:04;;;;;;;;;;;;;;;11.31;52.85;96645.91;4169621;28;5878;-64
2023/03/17 07:41:08;;;;;;;;;;;;;;;11.34;53.14;96640.22;4169407;28;5750;-64
2023/03/17 07:43:12;;;;;;;;;;;;;;;11.35;53.22;96649.78;4168297;28;5821;-64
2023/03/17 07:45:17;;;;;;;;;;;;;;;11.36;53.45;96646.13;4153253;28;5776;-64
2023/03/17 07:47:20;;;;;;;;;;;;;;;11.42;52.81;96647.94;4160669;28;5724;-64
2023/03/17 07:49:23;;;;;;;;;;;;;;;11.43;53.11;96648.75;4153342;28;5767;-64
2023/03/17 07:51:44;;;;;;;;;;;;;;;11.46;52.90;96645.72;4168453;28;5732;-64
2023/03/17 07:53:48;;;;;;;;;;;;;;;11.49;53.09;96645.31;4163753;28;5769;-64
2023/03/17 07:55:51;;;;;;;;;;;;;;;11.48;52.88;96646.34;4168047;28;5738;-64
2023/03/17 07:57:54;;;;;;;;;;;;;;;11.47;53.07;96648.19;4169319;28;5735;-64
2023/03/17 07:59:57;;;;;;;;;;;;;;;11.50;52.75;96642.47;4169243;28;5727;-64
2023/03/17 08:02:00;;;;;;;;;;;;;;;11.51;52.53;96653.88;4167971;28;5751;-67
2023/03/17 08:04:04;;;;;;;;;;;;;;;11.54;52.87;96638.38;4159983;28;5739;-68
2023/03/17 08:06:08;;;;;;;;;;;;;;;11.60;52.52;96637.59;4161611;28;6472;-67
2023/03/17 08:08:12;;;;;;;;;;;;;;;11.62;52.46;96640.84;4163422;28;5836;-67
2023/03/17 08:10:15;;;;;;;;;;;;;;;11.67;52.85;96648.19;4165940;28;5914;-67
2023/03/17 08:12:18;;;;;;;;;;;;;;;11.70;52.66;96647.78;4130975;28;5808;-67
2023/03/17 08:14:21;;;;;;;;;;;;;;;11.74;52.80;96643.69;4133146;28;6498;-67
2023/03/17 08:16:25;;;;;;;;;;;;;;;11.76;52.82;96641.66;4139589;28;5796;-66
2023/03/17 08:18:27;;;;;;;;;;;;;;;11.80;52.33;96648.22;4136702;28;5861;-67
2023/03/17 08:20:31;;;;;;;;;;;;;;;11.83;52.43;96660.25;4135462;28;5892;-62
2023/03/17 08:22:35;;;;;;;;;;;;;;;11.80;52.53;96655.34;4128118;28;5976;-62
2023/03/17 08:24:41;;;;;;;;;;;;;;;11.82;52.33;96661.25;4133572;28;5781;-70
2023/03/17 08:26:48;;;;;;;;;;;;;;;11.85;52.53;96650.25;4131122;28;5854;-70
2023/03/17 08:28:51;;;;;;;;;;;;;;;11.85;52.42;96653.72;4134517;28;5808;-70
2023/03/17 08:30:54;;;;;;;;;;;;;;;11.85;52.78;96640.47;4134119;28;5877;-70
2023/03/17 08:32:57;;;;;;;;;;;;;;;11.90;52.78;96647.81;4134115;28;5777;-67
2023/03/17 08:35:01;;;;;;;;;;;;;;;11.93;52.71;96639.44;4134455;28;5844;-69
2023/03/17 08:37:04;;;;;;;;;;;;;;;11.95;52.69;96632.91;4134108;28;5867;-69
2023/03/17 08:39:09;;;;;;;;;;;;;;;11.96;52.73;96641.69;4135653;28;5801;-65
2023/03/17 08:41:17;;;;;;;;;;;;;;;11.98;52.29;96637.00;4135430;28;5786;-65
2023/03/17 08:43:20;;;;;;;;;;;;;;;12.04;52.58;96630.88;4128019;28;5934;-66
2023/03/17 08:45:23;;;;;;;;;;;;;;;12.09;52.54;96623.13;4132619;28;8526;-67
2023/03/17 08:47:27;;;;;;;;;;;;;;;12.11;52.24;96618.41;4133241;28;5781;-63
2023/03/17 08:49:33;;;;;;;;;;;;;;;12.15;52.30;96626.78;4134876;28;5778;-67
2023/03/17 08:51:38;;;;;;;;;;;;;;;12.20;52.31;96625.13;4135215;28;5789;-68
2023/03/17 08:53:42;;;;;;;;;;;;;;;12.26;52.17;96625.34;4134936;28;5786;-69
2023/03/17 08:55:44;;;;;;;;;;;;;;;12.33;52.26;96628.78;4131526;28;5810;-65
2023/03/17 08:57:49;;;;;;;;;;;;;;;12.37;52.15;96616.75;4129749;28;5766;-75
2023/03/17 08:59:52;;;;;;;;;;;;;;;12.40;52.08;96619.78;4128977;28;5799;-75
2023/03/17 09:01:55;;;;;;;;;;;;;;;12.46;52.17;96615.50;4130270;28;6023;-74
2023/03/17 09:03:59;;;;;;;;;;;;;;;12.51;52.00;96618.34;4133778;28;5785;-74
2023/03/17 09:06:06;;;;;;;;;;;;;;;12.58;51.97;96619.13;4135357;28;5785;-74
2023/03/17 09:08:10;;;;;;;;;;;;;;;12.61;52.00;96624.00;4135463;28;5888;-74
2023/03/17 09:10:15;;;;;;;;;;;;;;;12.66;51.94;96621.53;4134141;28;5790;-74
2023/03/17 09:12:18;;;;;;;;;;;;;;;12.67;51.90;96623.16;4128212;28;5752;-75
2023/03/17 09:14:23;;;;;;;;;;;;;;;12.69;51.66;96631.75;4133655;28;5772;-75
2023/03/17 09:16:27;;;;;;;;;;;;;;;12.73;51.42;96632.94;4135448;28;5773;-75
2023/03/17 09:18:31;;;;;;;;;;;;;;;12.65;51.45;96627.84;4135007;28;5744;-75
2023/03/17 09:20:35;;;;;;;;;;;;;;;12.57;51.39;96632.56;4135247;28;5915;-75
2023/03/17 09:22:38;;;;;;;;;;;;;;;12.57;51.41;96628.13;4135145;28;5820;-76
2023/03/17 09:24:40;;;;;;;;;;;;;;;12.61;51.58;96623.19;4135186;28;5817;-76
2023/03/17 09:26:44;;;;;;;;;;;;;;;12.63;51.57;96621.13;4127736;28;5757;-75
2023/03/17 09:28:47;;;;;;;;;;;;;;;12.63;51.26;96621.97;4134843;28;5827;-75
2023/03/17 09:30:51;;;;;;;;;;;;;;;12.68;51.30;96618.66;4134300;28;5853;-75
2023/03/17 09:32:54;;;;;;;;;;;;;;;12.69;51.50;96620.31;4134604;28;5831;-75
2023/03/17 09:34:57;;;;;;;;;;;;;;;12.70;51.49;96621.94;4134445;28;5756;-75
2023/03/17 09:37:01;;;;;;;;;;;;;;;12.71;51.21;96629.69;4134824;28;5733;-75
2023/03/17 09:39:05;;;;;;;;;;;;;;;12.70;51.31;96621.94;4134023;28;5836;-75
2023/03/17 09:41:39;;;;;;;;;;;;;;;12.72;51.20;96617.22;4134764;28;5876;-75
2023/03/17 09:43:52;;;;;;;;;;;;;;;12.76;51.09;96616.59;4130037;28;5744;-76
2023/03/17 09:45:59;;;;;;;;;;;;;;;12.77;50.85;96618.22;4134366;28;5733;-75
2023/03/17 09:48:25;;;;;;;;;;;;;;;12.77;51.13;96612.09;4134812;28;5740;-75
2023/03/17 09:50:32;;;;;;;;;;;;;;;12.76;50.95;96616.59;4128315;28;5771;-74
2023/03/17 09:52:35;;;;;;;;;;;;;;;12.75;51.11;96617.63;4134558;28;5752;-74
2023/03/17 09:54:39;;;;;;;;;;;;;;;12.77;50.86;96612.91;4134618;28;5761;-76
2023/03/17 09:56:48;;;;;;;;;;;;;;;12.75;50.56;96614.16;4134669;28;5745;-76
2023/03/17 09:58:56;;;;;;;;;;;;;;;12.72;50.79;96612.75;4134587;28;5752;-76
2023/03/17 10:01:05;;;;;;;;;;;;;;;12.73;50.83;96616.22;4134610;28;5757;-76
2023/03/17 10:03:10;;;;;;;;;;;;;;;12.72;50.89;96614.59;4134359;28;5729;-75
2023/03/17 10:05:19;;;;;;;;;;;;;;;12.67;50.68;96611.72;4134504;28;5756;-75
2023/03/17 10:07:27;;;;;;;;;;;;;;;12.67;50.59;96622.34;4127424;28;5773;-75
2023/03/17 10:09:38;;;;;;;;;;;;;;;12.67;50.58;96625.81;4134485;28;5744;-76
2023/03/17 10:11:43;;;;;;;;;;;;;;;12.65;50.53;96629.69;4157480;28;5728;-76
2023/03/17 10:13:54;;;;;;;;;;;;;;;12.63;50.47;96621.13;4165389;28;5735;-77
2023/03/17 10:16:03;;;;;;;;;;;;;;;12.64;50.83;96620.94;4164012;28;5750;-76
2023/03/17 10:18:14;;;;;;;;;;;;;;;12.65;50.53;96611.13;4166733;28;5750;-76
2023/03/17 10:20:21;;;;;;;;;;;;;;;12.71;50.49;96613.78;4166826;28;5731;-76
2023/03/17 10:22:30;;;;;;;;;;;;;;;12.74;50.28;96600.06;4167018;28;5756;-76
2023/03/17 10:24:34;;;;;;;;;;;;;;;12.80;50.27;96607.22;4166751;28;5770;-76
2023/03/17 10:26:41;;;;;;;;;;;;;;;12.83;50.04;96598.81;4166801;28;5846;-75
2023/03/17 10:28:45;;;;;;;;;;;;;;;12.87;49.89;96593.88;4166919;28;5739;-75
2023/03/17 10:30:48;;;;;;;;;;;;;;;12.91;50.04;96596.91;4166731;28;5926;-75
2023/03/17 10:32:52;;;;;;;;;;;;;;;12.96;50.04;96597.94;4166493;28;5719;-75
2023/03/17 10:34:57;;;;;;;;;;;;;;;13.01;49.76;96586.66;4166735;28;5806;-75
2023/03/17 10:37:04;;;;;;;;;;;;;;;13.07;49.91;96596.44;4166456;28;5735;-76
2023/03/17 10:39:11;;;;;;;;;;;;;;;13.14;49.98;96586.59;4167244;28;5762;-75
2023/03/17 10:41:15;;;;;;;;;;;;;;;13.17;49.61;96586.19;4166734;28;5826;-76
2023/03/17 10:43:20;;;;;;;;;;;;;;;13.22;49.38;96588.19;4159010;28;5811;-76
2023/03/17 10:45:28;;;;;;;;;;;;;;;13.25;49.43;96591.25;4166908;28;6426;-76
2023/03/17 10:47:32;;;;;;;;;;;;;;;13.31;49.64;96601.00;4167963;28;5739;-75
2023/03/17 10:49:36;;;;;;;;;;;;;;;13.34;49.53;96591.78;4169873;28;5976;-76
2023/03/17 10:51:45;;;;;;;;;;;;;;;13.36;49.61;96595.88;4169401;28;5731;-75
2023/03/17 10:53:53;;;;;;;;;;;;;;;13.39;49.08;96599.94;4169737;28;5831;-75
2023/03/17 10:56:01;;;;;;;;;;;;;;;13.39;49.55;96592.78;4169857;28;5759;-76
2023/03/17 10:58:06;;;;;;;;;;;;;;;13.40;49.33;96594.41;4168603;28;5927;-76
2023/03/17 11:00:16;;;;;;;;;;;;;;;13.42;49.36;96594.19;4169814;28;5735;-75
2023/03/17 11:02:26;;;;;;;;;;;;;;;13.45;49.44;96593.75;4169684;28;5865;-75
2023/03/17 11:04:32;;;;;;;;;;;;;;;13.51;49.32;96589.44;4169754;28;5735;-75
2023/03/17 11:06:39;;;;;;;;;;;;;;;13.55;49.33;96587.97;4170224;28;5742;-75
2023/03/17 11:08:47;;;;;;;;;;;;;;;13.57;49.25;96585.91;4168017;28;5654;-75
2023/03/17 11:10:55;;;;;;;;;;;;;;;13.57;49.16;96580.59;4165362;28;5734;-74
2023/03/17 11:13:00;;;;;;;;;;;;;;;13.58;48.89;96583.03;4164106;28;5913;-75
2023/03/17 11:15:06;;;;;;;;;;;;;;;13.63;48.91;96585.03;4164797;28;5788;-74
2023/03/17 11:17:17;;;;;;;;;;;;;;;13.67;48.86;96584.38;4168416;28;5734;-74
2023/03/17 11:19:27;;;;;;;;;;;;;;;13.70;48.93;96577.81;4164335;28;5742;-74
2023/03/17 11:21:32;;;;;;;;;;;;;;;13.74;48.78;96575.56;4169168;28;5747;-74
2023/03/17 11:23:50;;;;;;;;;;;;;;;13.72;48.66;96575.78;4169179;28;5747;-75
2023/03/17 11:26:05;;;;;;;;;;;;;;;13.73;48.64;96568.63;4167996;28;5845;-74
2023/03/17 11:28:18;;;;;;;;;;;;;;;13.74;48.12;96563.09;4169152;28;5755;-74
2023/03/17 11:30:31;;;;;;;;;;;;;;;13.79;48.33;96567.72;4161477;28;6433;-73
2023/03/17 11:32:40;;;;;;;;;;;;;;;13.81;47.87;96555.84;4160749;28;5871;-74
2023/03/17 11:34:58;;;;;;;;;;;;;;;13.82;47.80;96560.16;4168875;28;6437;-75
2023/03/17 11:37:08;;;;;;;;;;;;;;;13.85;48.07;96562.38;4169223;28;5730;-74
2023/03/17 11:39:16;;;;;;;;;;;;;;;13.92;47.80;96560.44;4169376;28;5731;-74
2023/03/17 11:41:34;;;;;;;;;;;;;;;13.98;47.52;96559.56;4168906;28;5798;-75
2023/03/17 11:43:48;;;;;;;;;;;;;;;14.05;47.46;96561.38;4169154;28;5089;-75
2023/03/17 11:45:56;;;;;;;;;;;;;;;14.08;47.52;96567.03;4168952;28;5732;-75
2023/03/17 11:48:23;;;;;;;;;;;;;;;14.06;47.41;96565.66;4168765;28;5740;-74
2023/03/17 11:50:33;;;;;;;;;;;;;;;14.02;47.44;96567.91;4171393;28;5828;-75
2023/03/17 11:52:43;;;;;;;;;;;;;;;13.98;47.65;96562.22;4168934;28;5770;-75
2023/03/17 11:54:57;;;;;;;;;;;;;;;13.99;47.67;96557.72;4168330;28;5724;-75
2023/03/17 11:57:09;;;;;;;;;;;;;;;13.95;47.57;96557.38;4169170;28;5790;-74
2023/03/17 11:59:20;;;;;;;;;;;;;;;13.95;47.54;96552.06;4165310;28;5731;-75
2023/03/17 12:01:27;;;;;;;;;;;;;;;13.97;47.88;96559.81;4157886;28;5844;-75
2023/03/17 12:03:37;;;;;;;;;;;;;;;14.03;47.44;96558.09;4165181;28;5756;-75
2023/03/17 12:05:42;;;;;;;;;;;;;;;14.10;47.73;96562.31;4168716;28;5739;-74
2023/03/17 12:07:48;;;;;;;;;;;;;;;14.16;47.34;96544.69;4167733;28;5731;-74
2023/03/17 12:10:06;;;;;;;;;;;;;;;14.21;47.32;96550.94;4166954;28;5731;-73
2023/03/17 12:12:12;;;;;;;;;;;;;;;14.27;47.23;96551.91;4163276;28;5756;-76
2023/03/17 12:14:26;;;;;;;;;;;;;;;14.33;47.42;96548.34;4159861;28;5774;-76
2023/03/17 12:16:36;;;;;;;;;;;;;;;14.40;46.90;96543.78;4169346;28;5735;-75
2023/03/17 12:18:45;;;;;;;;;;;;;;;14.48;47.01;96551.47;4168368;28;5990;-75
2023/03/17 12:20:53;;;;;;;;;;;;;;;14.52;47.02;96551.84;4174248;28;7402;-75
2023/03/17 12:23:01;;;;;;;;;;;;;;;14.53;47.27;96546.31;4168642;28;5776;-75
2023/03/17 12:25:13;;;;;;;;;;;;;;;14.56;46.98;96540.53;4168392;28;5833;-74
2023/03/17 12:27:21;;;;;;;;;;;;;;;14.60;47.24;96534.75;4168111;28;5747;-76
2023/03/17 12:29:29;;;;;;;;;;;;;;;14.65;46.86;96542.88;4168256;28;5746;-76
2023/03/17 12:31:36;;;;;;;;;;;;;;;14.66;47.00;96531.22;4168247;28;5865;-74
2023/03/17 12:33:47;;;;;;;;;;;;;;;14.69;47.02;96528.09;4167951;28;5761;-76
2023/03/17 12:35:50;;;;;;;;;;;;;;;14.73;46.65;96524.78;4168165;28;5831;-75
2023/03/17 12:37:55;;;;;;;;;;;;;;;14.77;46.83;96533.09;4168239;28;5829;-75
2023/03/17 12:40:05;;;;;;;;;;;;;;;14.80;46.81;96522.81;4168379;28;5743;-76
2023/03/17 12:42:32;;;;;;;;;;;;;;;14.87;46.35;96521.94;4168167;28;5757;-74
2023/03/17 12:45:08;;;;;;;;;;;;;;;14.89;46.33;96523.31;4162322;28;5969;-74
2023/03/17 12:47:35;;;;;;;;;;;;;;;14.96;46.27;96523.22;4155654;28;5794;-75
2023/03/17 12:50:20;;;;;;;;;;;;;;;15.03;45.67;96516.75;4162832;28;5735;-75
2023/03/17 12:52:36;;;;;;;;;;;;;;;15.07;45.68;96499.31;4160878;28;5758;-75
2023/03/17 12:54:45;;;;;;;;;;;;;;;15.06;45.47;96511.00;4167937;28;5731;-75
2023/03/17 12:56:49;;;;;;;;;;;;;;;15.09;45.36;96494.56;4167727;28;6523;-75
2023/03/17 12:58:59;;;;;;;;;;;;;;;15.13;45.33;96506.34;4167661;28;5085;-74
2023/03/17 13:01:09;;;;;;;;;;;;;;;15.19;45.46;96506.50;4168103;28;5837;-75
2023/03/17 13:03:22;;;;;;;;;;;;;;;15.25;45.10;96501.06;4167170;28;5851;-75
2023/03/17 13:05:32;;;;;;;;;;;;;;;15.30;44.84;96495.06;4167437;28;5997;-75
2023/03/17 13:07:41;;;;;;;;;;;;;;;15.31;44.69;96494.81;4167871;28;5826;-75
2023/03/17 13:09:47;;;;;;;;;;;;;;;15.31;44.83;96491.34;4167088;28;5846;-75
2023/03/17 13:11:50;;;;;;;;;;;;;;;15.31;44.63;96486.03;4167104;28;5730;-74
2023/03/17 13:14:14;;;;;;;;;;;;;;;15.30;44.65;96479.06;4167631;28;5728;-74
2023/03/17 13:16:30;;;;;;;;;;;;;;;15.33;44.71;96483.94;4167437;28;5913;-75
2023/03/17 13:18:52;;;;;;;;;;;;;;;15.33;44.50;96471.44;4166881;28;5775;-74
2023/03/17 13:21:11;;;;;;;;;;;;;;;15.34;44.29;96469.56;4166956;28;5821;-75
2023/03/17 13:23:17;;;;;;;;;;;;;;;15.38;44.22;96470.72;4167095;28;5924;-76
2023/03/17 13:25:31;;;;;;;;;;;;;;;15.42;44.36;96466.56;4164183;28;5612;-76
2023/03/17 13:27:44;;;;;;;;;;;;;;;15.50;44.25;96462.72;4167133;28;7710;-75
2023/03/17 13:29:49;;;;;;;;;;;;;;;15.53;44.01;96456.97;4167374;28;6421;-77
2023/03/17 13:31:51;;;;;;;;;;;;;;;15.55;43.79;96458.34;4166776;28;5727;-75
2023/03/17 13:33:56;;;;;;;;;;;;;;;15.59;43.82;96450.69;4167255;28;6432;-76
2023/03/17 13:36:09;;;;;;;;;;;;;;;15.60;43.79;96450.47;4167057;28;5762;-75
2023/03/17 13:38:32;;;;;;;;;;;;;;;15.60;43.74;96447.00;4165510;28;5735;-75
2023/03/17 13:40:39;;;;;;;;;;;;;;;15.58;43.89;96433.91;4167192;28;6579;-76
2023/03/17 13:42:59;;;;;;;;;;;;;;;15.56;43.95;96443.97;4167112;28;5734;-75
2023/03/17 13:45:15;;;;;;;;;;;;;;;15.57;43.69;96437.59;4166720;28;5838;-74
2023/03/17 13:47:28;;;;;;;;;;;;;;;15.59;43.97;96435.50;4166680;28;5738;-75
2023/03/17 13:49:35;;;;;;;;;;;;;;;15.60;43.74;96437.16;4165840;28;5731;-76
2023/03/17 13:51:38;;;;;;;;;;;;;;;15.61;43.78;96433.44;4162968;28;5826;-76
2023/03/17 13:53:53;;;;;;;;;;;;;;;15.64;43.67;96425.00;4167378;28;5818;-76
2023/03/17 13:56:13;;;;;;;;;;;;;;;15.65;43.63;96418.63;4166386;28;5742;-76
2023/03/17 13:58:33;;;;;;;;;;;;;;;15.63;43.84;96426.06;4157894;28;5760;-76
2023/03/17 14:00:40;;;;;;;;;;;;;;;15.62;43.60;96424.41;4167242;28;5842;-75
2023/03/17 14:02:44;;;;;;;;;;;;;;;15.61;43.84;96422.78;4166893;28;5977;-75
2023/03/17 14:04:54;;;;;;;;;;;;;;;15.68;43.46;96415.50;4166891;28;5743;-75
2023/03/17 14:07:04;;;;;;;;;;;;;;;15.73;43.48;96426.25;4166232;28;5815;-75
2023/03/17 14:09:19;;;;;;;;;;;;;;;15.71;43.42;96423.00;4163325;28;5762;-75
2023/03/17 14:11:32;;;;;;;;;;;;;;;15.71;43.74;96414.22;4160219;28;5874;-75
2023/03/17 14:13:42;;;;;;;;;;;;;;;15.70;43.54;96404.59;4166252;28;5882;-75
2023/03/17 14:16:02;;;;;;;;;;;;;;;15.71;43.54;96412.34;4160175;28;5870;-75
2023/03/17 14:18:14;;;;;;;;;;;;;;;15.67;43.64;96413.88;4157392;28;5833;-75
2023/03/17 14:20:26;;;;;;;;;;;;;;;15.63;43.84;96404.75;4158298;28;5767;-75
2023/03/17 14:22:28;;;;;;;;;;;;;;;15.62;43.88;96404.94;4163989;28;6207;-75
2023/03/17 14:24:33;;;;;;;;;;;;;;;15.64;43.83;96410.88;4163062;28;7781;-75
2023/03/17 14:26:36;;;;;;;;;;;;;;;15.64;43.75;96410.88;4169192;28;5727;-75
2023/03/17 14:28:39;;;;;;;;;;;;;;;15.64;43.81;96397.56;4165575;28;5742;-65
2023/03/17 14:30:52;;;;;;;;;;;;;;;15.63;43.98;96390.63;4163698;28;5938;-69
2023/03/17 14:33:03;;;;;;;;;;;;;;;15.62;43.86;96392.44;4164156;28;5870;-65
2023/03/17 14:35:06;;;;;;;;;;;;;;;15.62;44.04;96403.09;4166929;28;5886;-66
2023/03/17 14:37:11;;;;;;;;;;;;;;;15.60;43.76;96405.19;4176003;28;6420;-66
2023/03/17 14:39:23;;;;;;;;;;;;;;;15.58;43.63;96395.78;4177516;28;5840;-70
2023/03/17 14:41:28;;;;;;;;;;;;;;;15.53;43.69;96396.50;4163374;28;5857;-68
2023/03/17 14:43:36;;;;;;;;;;;;;;;15.51;43.64;96395.09;4168476;28;5698;-65
2023/03/17 14:45:49;;;;;;;;;;;;;;;15.50;43.55;96399.59;4171545;28;5743;-69
2023/03/17 14:47:52;;;;;;;;;;;;;;;15.51;43.29;96382.56;4176584;28;5731;-69
2023/03/17 14:49:56;;;;;;;;;;;;;;;15.53;43.31;96391.16;4169811;28;5752;-69
2023/03/17 14:52:01;;;;;;;;;;;;;;;15.53;43.42;96383.19;4173693;28;5717;-64
2023/03/17 14:54:11;;;;;;;;;;;;;;;15.56;43.17;96377.38;4161242;28;5887;-65
2023/03/17 14:56:14;;;;;;;;;;;;;;;15.59;43.32;96382.22;4165566;28;5856;-66
2023/03/17 14:58:21;;;;;;;;;;;;;;;15.60;43.41;96373.22;4169487;28;5937;-65
2023/03/17 15:00:33;;;;;;;;;;;;;;;15.65;42.93;96377.84;4169723;28;5745;-65
2023/03/17 15:02:37;;;;;;;;;;;;;;;15.69;43.00;96373.66;4169384;28;5827;-63
2023/03/17 15:04:51;;;;;;;;;;;;;;;15.73;42.83;96372.13;4175873;28;5862;-66
2023/03/17 15:06:57;;;;;;;;;;;;;;;15.75;42.93;96364.75;4173016;28;5791;-67
2023/03/17 15:09:03;;;;;;;;;;;;;;;15.77;43.03;96361.84;4167639;28;5847;-70
2023/03/17 15:11:07;;;;;;;;;;;;;;;15.76;42.91;96362.88;4176703;28;5722;-68
2023/03/17 15:13:12;;;;;;;;;;;;;;;15.75;42.91;96355.94;4167802;28;5754;-68
2023/03/17 15:15:22;;;;;;;;;;;;;;;15.80;42.63;96350.69;4163624;28;5866;-69
2023/03/17 15:17:30;;;;;;;;;;;;;;;15.84;42.44;96357.97;4166149;28;5889;-69
2023/03/17 15:19:39;;;;;;;;;;;;;;;15.85;42.56;96361.44;4164221;28;5842;-69
2023/03/17 15:21:43;;;;;;;;;;;;;;;15.88;42.40;96353.00;4159619;28;5831;-70
2023/03/17 15:23:47;;;;;;;;;;;;;;;15.87;42.64;96356.72;4177932;28;5811;-70
2023/03/17 15:25:54;;;;;;;;;;;;;;;15.90;42.62;96342.91;4165230;28;5913;-70
2023/03/17 15:27:57;;;;;;;;;;;;;;;15.94;42.37;96336.03;4164657;28;5845;-70
2023/03/17 15:30:01;;;;;;;;;;;;;;;15.96;42.29;96334.75;4174593;28;5784;-70
2023/03/17 15:32:12;;;;;;;;;;;;;;;15.99;41.95;96331.63;4167182;28;5804;-70
2023/03/17 15:34:15;;;;;;;;;;;;;;;16.03;42.24;96331.94;4164789;28;5913;-70
2023/03/17 15:36:18;;;;;;;;;;;;;;;16.05;42.32;96337.84;4164317;28;5893;-70
2023/03/17 15:38:37;;;;;;;;;;;;;;;16.09;42.20;96331.00;4167227;28;5755;-69
2023/03/17 15:40:41;;;;;;;;;;;;;;;16.09;42.28;96328.34;4167256;28;5913;-69
2023/03/17 15:42:45;;;;;;;;;;;;;;;16.06;42.12;96323.47;4166559;28;5734;-70
2023/03/17 15:44:48;;;;;;;;;;;;;;;16.02;42.28;96317.81;4165039;28;5761;-70
2023/03/17 15:46:51;;;;;;;;;;;;;;;16.00;42.16;96322.59;4165635;28;5814;-70
2023/03/17 15:48:53;;;;;;;;;;;;;;;15.99;42.32;96317.50;4166877;28;5923;-69
2023/03/17 15:50:58;;;;;;;;;;;;;;;15.95;42.20;96311.00;4167073;28;5826;-69
2023/03/17 15:53:01;;;;;;;;;;;;;;;15.92;42.14;96311.47;4172276;28;5868;-70
2023/03/17 15:55:13;;;;;;;;;;;;;;;15.89;42.19;96311.97;4179472;28;5896;-70
2023/03/17 15:57:18;;;;;;;;;;;;;;;15.88;42.43;96319.16;4166819;28;5806;-70
2023/03/17 15:59:21;;;;;;;;;;;;;;;15.88;42.38;96321.81;4173059;28;5814;-70
2023/03/17 16:01:24;;;;;;;;;;;;;;;15.87;42.44;96314.88;4167422;28;5917;-69
2023/03/17 16:03:32;;;;;;;;;;;;;;;15.92;42.26;96322.97;4163936;28;5727;-69
2023/03/17 16:05:36;;;;;;;;;;;;;;;15.94;42.33;96325.38;4166775;28;5941;-69
2023/03/17 16:07:38;;;;;;;;;;;;;;;15.99;42.21;96328.16;4159604;28;5826;-69
2023/03/17 16:09:41;;;;;;;;;;;;;;;15.99;42.13;96317.50;4159870;28;5743;-65
2023/03/17 16:11:44;;;;;;;;;;;;;;;15.99;42.27;96322.81;4163801;28;6016;-67
2023/03/17 16:13:48;;;;;;;;;;;;;;;16.00;42.24;96319.91;4162708;28;5743;-68
2023/03/17 16:15:55;;;;;;;;;;;;;;;16.02;42.29;96317.00;4166031;28;6563;-68
2023/03/17 16:18:00;;;;;;;;;;;;;;;16.01;42.26;96316.19;4165027;28;5825;-68
2023/03/17 16:20:04;;;;;;;;;;;;;;;16.00;42.19;96311.91;4166398;28;5731;-69
2023/03/17 16:22:26;;;;;;;;;;;;;;;15.98;42.25;96313.22;4169311;28;5113;-69
2023/03/17 16:24:30;;;;;;;;;;;;;;;15.96;42.20;96313.41;4168218;28;6578;-69
2023/03/17 16:26:33;;;;;;;;;;;;;;;15.93;42.11;96319.25;4162304;28;5743;-69
2023/03/17 16:28:35;;;;;;;;;;;;;;;15.91;42.17;96321.34;4156831;28;5773;-67
2023/03/17 16:30:40;;;;;;;;;;;;;;;15.92;42.30;96316.81;4170508;28;5825;-68
2023/03/17 16:32:43;;;;;;;;;;;;;;;15.93;42.32;96323.75;4173918;28;5717;-68
2023/03/17 16:34:46;;;;;;;;;;;;;;;15.90;42.10;96324.25;4171746;28;5718;-69
2023/03/17 16:36:50;;;;;;;;;;;;;;;15.86;42.26;96323.91;4179765;28;5137;-68
2023/03/17 16:38:53;;;;;;;;;;;;;;;15.85;42.38;96321.47;4171756;28;5804;-67
2023/03/17 16:40:58;;;;;;;;;;;;;;;15.81;42.23;96317.66;4180003;28;5750;-68
2023/03/17 16:43:04;;;;;;;;;;;;;;;15.76;42.03;96314.91;4171409;28;6369;-68
2023/03/17 16:45:22;;;;;;;;;;;;;;;15.76;42.27;96312.25;4174307;28;5741;-68
2023/03/17 16:47:26;;;;;;;;;;;;;;;15.74;42.31;96304.47;4166688;28;5739;-68
2023/03/17 16:49:29;;;;;;;;;;;;;;;15.73;42.32;96310.84;4169711;28;6549;-68
2023/03/17 16:51:31;;;;;;;;;;;;;;;15.72;42.24;96310.03;4172925;28;5709;-67
2023/03/17 16:53:34;;;;;;;;;;;;;;;15.69;42.08;96310.53;4171855;28;5978;-68
2023/03/17 16:55:39;;;;;;;;;;;;;;;15.66;42.04;96307.53;4166112;28;5739;-67
2023/03/17 16:57:43;;;;;;;;;;;;;;;15.64;42.13;96306.97;4175237;28;5759;-68
2023/03/17 16:59:45;;;;;;;;;;;;;;;15.64;42.16;96307.78;4170185;28;5853;-68
2023/03/17 17:01:48;;;;;;;;;;;;;;;15.63;42.10;96311.47;4173269;28;5792;-68
2023/03/17 17:03:53;;;;;;;;;;;;;;;15.63;42.31;96313.34;4168816;28;5834;-68
2023/03/17 17:05:56;;;;;;;;;;;;;;;15.61;42.06;96310.88;4170008;28;5797;-68
2023/03/17 17:07:59;;;;;;;;;;;;;;;15.58;42.17;96319.34;4170043;28;5145;-68
2023/03/17 17:10:02;;;;;;;;;;;;;;;15.57;42.13;96320.38;4169446;28;5818;-68
2023/03/17 17:12:06;;;;;;;;;;;;;;;15.55;42.31;96330.47;4169123;28;5821;-68
2023/03/17 17:14:09;;;;;;;;;;;;;;;15.55;42.07;96327.81;4169359;28;5943;-68
2023/03/17 17:16:20;;;;;;;;;;;;;;;15.56;42.27;96336.59;4177236;28;5772;-68
2023/03/17 17:18:24;;;;;;;;;;;;;;;15.61;42.00;96342.06;4162804;28;5378;-69
2023/03/17 17:20:32;;;;;;;;;;;;;;;15.60;42.20;96335.91;4165789;28;7769;-69
2023/03/17 17:22:35;;;;;;;;;;;;;;;15.57;42.23;96344.34;4165190;28;5905;-68